Time;durP1;ratioP1;P1;durP2;ratioP2;P2;SDS_P1;SDS_P2;PMS_P1;PMS_P2;Temp;Humidity;BMP_temperature;BMP_pressure;BME280_temperature;BME280_humidity;BME280_pressure;Samples;Min_cycle;Max_cycle;Signal;HPM_P1;HPM_P2
2023/10/17 00:01:19;;;;;;;21.90;9.45;;;6.10;99.90;;;;;;5077847;28;20056;-27
2023/10/17 00:03:45;;;;;;;14.98;8.75;;;6.30;99.90;;;;;;5078415;28;20048;-27
2023/10/17 00:06:13;;;;;;;22.15;9.82;;;6.20;99.90;;;;;;5087834;28;20413;-27
2023/10/17 00:08:41;;;;;;;14.80;9.20;;;6.30;99.90;;;;;;5087056;28;20511;-27
2023/10/17 00:11:11;;;;;;;18.98;8.73;;;6.20;99.90;;;;;;5058654;28;20090;-27
2023/10/17 00:13:45;;;;;;;16.08;7.90;;;6.20;99.90;;;;;;5062044;28;20506;-27
2023/10/17 00:16:13;;;;;;;16.45;8.40;;;6.30;99.90;;;;;;5080578;28;20115;-27
2023/10/17 00:18:39;;;;;;;16.90;8.60;;;6.30;99.90;;;;;;5079314;28;20040;-27
2023/10/17 00:21:22;;;;;;;14.68;9.57;;;6.30;99.90;;;;;;5080198;28;20119;-28
2023/10/17 00:23:52;;;;;;;15.57;9.25;;;6.30;99.90;;;;;;5076516;28;20044;-28
2023/10/17 00:26:19;;;;;;;14.35;9.27;;;6.40;99.90;;;;;;5077627;28;20406;-27
2023/10/17 00:28:48;;;;;;;18.55;9.38;;;6.50;99.90;;;;;;5077098;28;20060;-28
2023/10/17 00:31:15;;;;;;;14.75;9.13;;;6.40;99.90;;;;;;5084512;28;20060;-27
2023/10/17 00:33:41;;;;;;;18.27;9.27;;;6.40;99.90;;;;;;5089330;28;20054;-28
2023/10/17 00:36:16;;;;;;;17.58;10.50;;;6.40;99.90;;;;;;5081730;28;20097;-27
2023/10/17 00:38:45;;;;;;;18.38;11.45;;;6.40;99.90;;;;;;5096456;28;20050;-27
2023/10/17 00:41:35;;;;;;;16.90;9.15;;;6.50;99.90;;;;;;5094934;28;20054;-27
2023/10/17 00:44:00;;;;;;;20.20;10.13;;;6.50;99.90;;;;;;5091454;28;20057;-27
2023/10/17 00:46:26;;;;;;;14.13;8.85;;;6.50;99.90;;;;;;5093212;28;20044;-28
2023/10/17 00:48:56;;;;;;;18.02;9.55;;;6.60;99.90;;;;;;5095294;28;20048;-27
2023/10/17 00:51:23;;;;;;;15.23;9.38;;;6.50;99.90;;;;;;5095216;28;20040;-27
2023/10/17 00:53:49;;;;;;;17.30;10.00;;;6.40;99.90;;;;;;5076388;28;20074;-27
2023/10/17 00:56:15;;;;;;;18.23;9.52;;;6.50;99.90;;;;;;5074574;28;20044;-27
2023/10/17 00:58:44;;;;;;;15.20;10.10;;;6.40;99.90;;;;;;5088537;28;20132;-27
2023/10/17 01:01:20;;;;;;;24.08;10.45;;;6.40;99.90;;;;;;5095414;28;20071;-26
2023/10/17 01:03:47;;;;;;;17.13;9.38;;;6.40;99.90;;;;;;5078143;28;20048;-26
2023/10/17 01:11:57;;;;;;;17.50;9.68;;;6.30;99.90;;;;;;5034477;28;20050;-28
2023/10/17 01:14:23;;;;;;;20.10;10.65;;;6.40;99.90;;;;;;5065604;28;20060;-27
2023/10/17 01:16:53;;;;;;;20.38;10.93;;;6.60;99.90;;;;;;5075558;28;20049;-28
2023/10/17 01:19:20;;;;;;;16.90;9.45;;;6.60;99.90;;;;;;5059113;28;20501;-27
2023/10/17 01:21:46;;;;;;;14.70;9.77;;;6.50;99.90;;;;;;5075387;28;20127;-26
2023/10/17 01:24:12;;;;;;;16.85;11.25;;;6.60;99.90;;;;;;5075348;28;20084;-27
2023/10/17 01:26:38;;;;;;;17.42;9.15;;;6.50;99.90;;;;;;5075325;28;20083;-26
2023/10/17 01:29:10;;;;;;;13.23;9.18;;;6.40;99.90;;;;;;5079499;28;20510;-26
2023/10/17 01:31:39;;;;;;;16.00;8.93;;;6.50;99.90;;;;;;5091161;28;20076;-26
2023/10/17 01:34:05;;;;;;;14.25;8.82;;;6.40;99.90;;;;;;5095365;28;20055;-26
2023/10/17 01:36:31;;;;;;;17.88;9.32;;;6.40;99.90;;;;;;5095253;28;20079;-27
2023/10/17 01:38:57;;;;;;;14.38;9.38;;;6.30;99.90;;;;;;5095471;28;20472;-26
2023/10/17 01:41:23;;;;;;;17.45;9.77;;;6.30;99.90;;;;;;5084089;28;20102;-27
2023/10/17 01:43:50;;;;;;;15.82;10.57;;;6.10;99.90;;;;;;5074951;28;20044;-26
2023/10/17 01:46:21;;;;;;;14.20;8.38;;;6.10;99.90;;;;;;5074880;28;20492;-26
2023/10/17 01:48:54;;;;;;;13.57;8.07;;;5.90;99.90;;;;;;5058408;28;20106;-27
2023/10/17 01:51:24;;;;;;;13.40;9.05;;;5.90;99.90;;;;;;5079880;28;20410;-27
2023/10/17 01:53:51;;;;;;;15.25;9.25;;;5.90;99.90;;;;;;5093792;28;20044;-27
2023/10/17 01:56:25;;;;;;;13.40;10.02;;;5.80;99.90;;;;;;5086670;28;20040;-26
2023/10/17 01:58:51;;;;;;;13.18;8.45;;;5.70;99.90;;;;;;5074810;28;20052;-26
2023/10/17 02:01:29;;;;;;;17.75;9.13;;;5.60;99.90;;;;;;5075314;28;20525;-26
2023/10/17 02:04:03;;;;;;;11.98;8.23;;;5.50;99.90;;;;;;5094707;28;20088;-27
2023/10/17 02:06:32;;;;;;;14.15;8.20;;;5.50;99.90;;;;;;5095123;28;20109;-26
2023/10/17 02:08:59;;;;;;;15.13;8.57;;;5.40;99.90;;;;;;5094951;28;20505;-26
2023/10/17 02:11:28;;;;;;;12.25;8.60;;;5.50;99.90;;;;;;5094718;28;20126;-26
2023/10/17 02:13:58;;;;;;;13.55;8.25;;;5.40;99.90;;;;;;5074254;28;20044;-26
2023/10/17 02:16:28;;;;;;;15.80;8.98;;;5.40;99.90;;;;;;5088275;28;20060;-26
2023/10/17 02:18:58;;;;;;;14.77;8.63;;;5.20;99.90;;;;;;5094749;28;20046;-26
2023/10/17 02:21:27;;;;;;;15.77;8.05;;;5.30;99.90;;;;;;5094550;28;20178;-28
2023/10/17 02:23:53;;;;;;;14.60;7.85;;;5.30;99.90;;;;;;5094739;28;20402;-26
2023/10/17 02:26:28;;;;;;;10.98;7.40;;;5.30;99.90;;;;;;5082769;28;20123;-26
2023/10/17 02:28:54;;;;;;;14.57;7.95;;;5.10;99.90;;;;;;5074172;28;20041;-26
2023/10/17 02:31:40;;;;;;;11.70;7.18;;;4.70;99.90;;;;;;5074599;28;20052;-26
2023/10/17 02:34:09;;;;;;;11.82;6.50;;;4.90;99.90;;;;;;5074612;28;20044;-26
2023/10/17 02:36:35;;;;;;;12.57;7.40;;;4.80;99.90;;;;;;5074121;28;20517;-26
2023/10/17 02:39:01;;;;;;;22.15;7.38;;;4.50;99.90;;;;;;5073081;28;20055;-26
2023/10/17 02:41:30;;;;;;;12.43;7.47;;;4.50;99.90;;;;;;5072736;28;20084;-26
2023/10/17 02:43:56;;;;;;;15.95;8.60;;;4.20;99.90;;;;;;5075158;28;20083;-26
2023/10/17 02:46:28;;;;;;;15.45;8.07;;;4.50;99.90;;;;;;5091528;28;20080;-26
2023/10/17 02:48:57;;;;;;;12.53;7.83;;;4.40;99.90;;;;;;5073923;28;20051;-26
2023/10/17 02:53:56;;;;;;;11.35;7.30;;;3.80;99.90;;;;;;5074286;28;20083;-26
2023/10/17 02:56:23;;;;;;;14.77;5.95;;;4.00;99.90;;;;;;5073121;28;20054;-26
2023/10/17 02:59:12;;;;;;;11.25;6.68;;;3.60;99.90;;;;;;5073162;28;20048;-26
2023/10/17 03:01:40;;;;;;;12.88;6.47;;;3.50;99.90;;;;;;5073920;28;20390;-26
2023/10/17 03:04:08;;;;;;;17.05;7.30;;;3.50;99.90;;;;;;5073639;28;20055;-26
2023/10/17 03:06:42;;;;;;;11.00;6.65;;;3.80;99.90;;;;;;5073612;28;20047;-25
2023/10/17 03:09:16;;;;;;;11.90;7.88;;;3.50;99.90;;;;;;5073874;28;20041;-26
2023/10/17 03:17:06;;;;;;;18.45;8.43;;;4.00;99.90;;;;;;5094110;28;20400;-26
2023/10/17 03:19:33;;;;;;;15.30;8.18;;;3.70;99.90;;;;;;5093602;28;20489;-26
2023/10/17 03:22:16;;;;;;;15.68;8.32;;;3.50;99.90;;;;;;5092709;28;20047;-26
2023/10/17 03:24:46;;;;;;;13.98;8.23;;;3.70;99.90;;;;;;5094577;28;20109;-26
2023/10/17 03:27:23;;;;;;;10.93;7.30;;;3.30;99.90;;;;;;5093641;28;20052;-27
2023/10/17 03:29:50;;;;;;;10.93;6.55;;;3.20;99.90;;;;;;5092602;28;20046;-26
2023/10/17 03:32:16;;;;;;;10.80;5.72;;;3.20;99.90;;;;;;5085045;28;20109;-26
2023/10/17 03:34:45;;;;;;;14.80;6.90;;;3.20;99.90;;;;;;5073433;28;20051;-26
2023/10/17 03:39:53;;;;;;;12.23;7.05;;;3.10;99.90;;;;;;5073306;28;20045;-26
2023/10/17 03:42:43;;;;;;;10.88;6.05;;;3.30;99.90;;;;;;5072637;28;20405;-26
2023/10/17 03:45:13;;;;;;;13.90;6.65;;;3.30;99.90;;;;;;5072990;28;20048;-27
2023/10/17 03:47:52;;;;;;;10.82;6.57;;;3.20;99.90;;;;;;5074090;28;20055;-26
2023/10/17 03:50:31;;;;;;;12.73;6.55;;;3.00;99.90;;;;;;5072591;28;20049;-26
2023/10/17 03:53:07;;;;;;;13.68;7.88;;;3.00;99.90;;;;;;5076046;28;20478;-26
2023/10/17 03:55:42;;;;;;;14.10;7.75;;;3.10;99.90;;;;;;5094037;28;20086;-26
2023/10/17 04:00:54;;;;;;;17.08;8.68;;;3.20;99.90;;;;;;5093313;28;20056;-26
2023/10/17 04:03:25;;;;;;;14.88;7.88;;;3.10;99.90;;;;;;5090666;28;20052;-26
2023/10/17 04:08:31;;;;;;;15.98;8.43;;;3.40;99.90;;;;;;5093122;28;20080;-26
2023/10/17 04:11:17;;;;;;;15.35;8.02;;;3.30;99.90;;;;;;5093228;28;20039;-26
2023/10/17 04:13:50;;;;;;;15.25;8.27;;;2.90;99.90;;;;;;5093256;28;20123;-26
2023/10/17 04:16:33;;;;;;;22.35;10.50;;;3.20;99.90;;;;;;5085675;28;20123;-27
2023/10/17 04:19:00;;;;;;;17.48;9.75;;;3.40;99.90;;;;;;5073521;28;20118;-26
2023/10/17 04:21:30;;;;;;;13.13;8.93;;;3.40;99.90;;;;;;5071977;28;20372;-27
2023/10/17 04:24:01;;;;;;;19.67;11.02;;;3.30;99.90;;;;;;5073705;28;20045;-26
2023/10/17 04:26:27;;;;;;;14.82;9.43;;;3.20;99.90;;;;;;5074752;28;20478;-26
2023/10/17 04:29:01;;;;;;;16.55;9.85;;;3.00;99.90;;;;;;5096975;28;20082;-26
2023/10/17 04:31:30;;;;;;;17.92;10.07;;;3.00;99.90;;;;;;5096937;28;20478;-26
2023/10/17 04:34:21;;;;;;;20.23;10.25;;;3.00;99.90;;;;;;5095421;28;20059;-26
2023/10/17 04:36:43;;;;;;;21.02;9.60;;;3.00;99.90;;;;;;5095288;28;20481;-27
2023/10/17 04:39:18;;;;;;;17.05;9.73;;;3.30;99.90;;;;;;5096114;28;20098;-26
2023/10/17 04:49:55;;;;;;;21.65;11.32;;;3.40;99.90;;;;;;5096547;28;20044;-27
2023/10/17 04:52:29;;;;;;;15.73;10.40;;;3.70;99.90;;;;;;5096100;28;20075;-27
2023/10/17 04:55:01;;;;;;;18.65;10.15;;;3.80;99.90;;;;;;5096842;28;20060;-26
2023/10/17 04:57:54;;;;;;;17.20;8.63;;;3.90;99.90;;;;;;5095346;28;20126;-26
2023/10/17 05:00:25;;;;;;;17.55;10.40;;;3.70;99.90;;;;;;5082391;28;20084;-27
2023/10/17 06:17:23;;;;;;;15.45;7.07;;;4.60;99.90;;;;;;5095487;28;20553;-27
2023/10/17 06:19:49;;;;;;;10.00;6.97;;;4.40;99.90;;;;;;5095095;28;20048;-27
2023/10/17 06:33:17;;;;;;;14.43;6.03;;;4.60;99.90;;;;;;5094378;28;20087;-27
2023/10/17 06:35:53;;;;;;;13.45;6.72;;;4.20;99.90;;;;;;5094859;28;20486;-27
2023/10/17 06:38:27;;;;;;;11.88;5.60;;;4.40;99.90;;;;;;5093497;28;20045;-28
2023/10/17 06:41:14;;;;;;;15.25;6.90;;;4.50;99.90;;;;;;5094236;28;20488;-27
2023/10/17 06:43:46;;;;;;;12.55;6.28;;;4.60;99.90;;;;;;5094221;28;20486;-27
2023/10/17 06:46:14;;;;;;;12.68;6.32;;;4.40;99.90;;;;;;5094024;28;20044;-27
2023/10/17 06:48:49;;;;;;;9.55;5.78;;;4.50;99.90;;;;;;5093532;28;20482;-28
2023/10/17 06:53:47;;;;;;;12.20;6.47;;;4.90;99.90;;;;;;5094017;28;20490;-27
2023/10/17 06:56:14;;;;;;;14.05;7.15;;;4.90;99.90;;;;;;5093664;28;20387;-27
2023/10/17 06:58:40;;;;;;;15.70;6.55;;;4.80;99.90;;;;;;5094204;28;20040;-27
2023/10/17 07:01:19;;;;;;;14.30;6.55;;;5.10;99.90;;;;;;5094274;28;20055;-28
2023/10/17 07:03:45;;;;;;;13.65;6.70;;;4.90;99.90;;;;;;5093947;28;20052;-27
2023/10/17 07:06:11;;;;;;;10.63;6.60;;;5.20;99.90;;;;;;5094403;28;20105;-27
2023/10/17 07:08:37;;;;;;;12.85;7.35;;;5.30;99.90;;;;;;5092894;28;20052;-27
2023/10/17 07:11:10;;;;;;;18.08;8.27;;;5.10;99.90;;;;;;5093860;28;20044;-27
2023/10/17 07:16:33;;;;;;;10.00;5.05;;;5.60;99.90;;;;;;5093832;28;20478;-27
2023/10/17 07:24:48;;;;;;;11.48;4.85;;;5.70;99.90;;;;;;5094274;28;20044;-27
2023/10/17 07:27:26;;;;;;;11.00;4.68;;;5.90;99.90;;;;;;5092776;28;20056;-27
2023/10/17 07:30:00;;;;;;;8.77;4.40;;;6.20;99.90;;;;;;5093657;28;20482;-28
2023/10/17 07:32:33;;;;;;;8.15;4.68;;;5.80;99.90;;;;;;5092500;28;20048;-27
2023/10/17 07:35:01;;;;;;;11.68;4.97;;;5.80;99.90;;;;;;5093531;28;20048;-27
2023/10/17 07:37:27;;;;;;;14.00;5.05;;;5.80;99.90;;;;;;5092605;28;20054;-27
2023/10/17 07:42:42;;;;;;;9.30;4.53;;;6.20;99.90;;;;;;5092632;28;20130;-28
2023/10/17 07:45:15;;;;;;;10.57;5.10;;;6.30;99.90;;;;;;5092816;28;20055;-27
2023/10/17 07:47:51;;;;;;;11.48;5.38;;;6.30;99.90;;;;;;5094397;28;20048;-27
2023/10/17 07:50:17;;;;;;;11.40;6.68;;;6.40;99.90;;;;;;5075377;28;20056;-27
2023/10/17 07:52:44;;;;;;;17.48;7.53;;;6.60;99.90;;;;;;5092136;28;20056;-28
2023/10/17 07:55:17;;;;;;;16.05;7.35;;;6.40;99.90;;;;;;5093402;28;20051;-27
2023/10/17 07:57:44;;;;;;;12.57;6.75;;;6.60;99.90;;;;;;5094026;28;20083;-28
2023/10/17 08:00:29;;;;;;;11.57;7.03;;;6.80;99.90;;;;;;5093271;28;20125;-27
2023/10/17 08:03:17;;;;;;;14.40;6.85;;;6.80;99.90;;;;;;5097258;28;20138;-27
2023/10/17 08:05:58;;;;;;;15.75;6.78;;;6.90;99.90;;;;;;5097512;28;20090;-27
2023/10/17 08:08:30;;;;;;;15.10;7.70;;;6.70;99.90;;;;;;5097160;28;20090;-27
2023/10/17 08:10:58;;;;;;;15.30;8.68;;;6.90;99.90;;;;;;5096116;28;20099;-27
2023/10/17 08:13:23;;;;;;;14.80;8.15;;;6.90;99.90;;;;;;5097080;28;20088;-27
2023/10/17 08:15:55;;;;;;;18.65;7.13;;;7.00;99.90;;;;;;5096925;28;20461;-27
2023/10/17 08:18:28;;;;;;;20.08;6.80;;;7.00;99.90;;;;;;5096867;28;20473;-27
2023/10/17 08:23:26;;;;;;;11.45;5.22;;;7.20;99.90;;;;;;5097131;28;20048;-27
2023/10/17 08:25:59;;;;;;;12.55;6.70;;;7.30;99.90;;;;;;5096773;28;20474;-26
2023/10/17 08:28:33;;;;;;;9.73;4.75;;;7.50;99.90;;;;;;5096075;28;20482;-27
2023/10/17 08:42:05;;;;;;;9.77;5.85;;;8.10;99.90;;;;;;5096484;28;20095;-27
2023/10/17 08:44:35;;;;;;;8.57;4.28;;;8.20;99.90;;;;;;5096518;28;20050;-29
2023/10/17 08:47:04;;;;;;;6.50;3.70;;;8.30;99.90;;;;;;5095543;28;20564;-27
2023/10/17 08:49:31;;;;;;;7.88;2.60;;;8.40;99.90;;;;;;5095980;28;20044;-27
2023/10/17 08:52:01;;;;;;;6.95;2.20;;;8.60;99.90;;;;;;5096311;28;20048;-27
2023/10/17 08:54:30;;;;;;;5.20;2.40;;;8.60;99.90;;;;;;5096252;28;20116;-28
2023/10/17 08:57:03;;;;;;;5.03;2.00;;;8.70;99.90;;;;;;5062663;28;20153;-27
2023/10/17 09:00:23;;;;;;;5.55;2.22;;;8.80;99.90;;;;;;5096014;28;20134;-27
2023/10/17 09:04:50;;;;;;;3.10;1.50;;;9.00;99.90;;;;;;5095433;28;20532;-27
2023/10/17 09:07:31;;;;;;;4.53;1.40;;;9.40;99.90;;;;;;5095798;28;20147;-27
2023/10/17 09:10:04;;;;;;;8.95;4.57;;;10.60;99.90;;;;;;5095572;28;20428;-27
2023/10/17 09:12:42;;;;;;;5.22;3.10;;;11.80;99.90;;;;;;5077543;28;20052;-27
2023/10/17 09:15:27;;;;;;;9.75;2.55;;;;;;;;;;5096192;28;20047;-28
2023/10/17 09:18:08;;;;;;;3.55;1.90;;;13.90;99.90;;;;;;5096418;28;20397;-28
2023/10/17 09:20:35;;;;;;;3.70;1.85;;;;;;;;;;5061829;28;20043;-28
2023/10/17 09:23:01;;;;;;;5.43;1.55;;;15.00;99.90;;;;;;5095712;28;20084;-27
2023/10/17 09:25:30;;;;;;;3.35;1.17;;;15.20;99.90;;;;;;5095586;28;20090;-27
2023/10/17 09:27:57;;;;;;;5.25;1.40;;;15.40;1.00;;;;;;5095588;28;20083;-27
2023/10/17 09:30:26;;;;;;;2.63;0.80;;;15.40;1.00;;;;;;5096110;28;20051;-27
2023/10/17 09:32:52;;;;;;;4.55;0.80;;;15.60;1.00;;;;;;5096051;28;20044;-27
2023/10/17 09:35:22;;;;;;;3.72;0.77;;;15.70;1.00;;;;;;5094321;28;20055;-27
2023/10/17 09:37:51;;;;;;;4.30;0.80;;;15.90;1.00;;;;;;5095984;28;20052;-27
2023/10/17 09:40:26;;;;;;;4.05;0.73;;;15.90;1.00;;;;;;5095277;28;20091;-27
2023/10/17 09:42:53;;;;;;;2.65;0.73;;;16.00;99.90;;;;;;5095418;28;20052;-27
2023/10/17 09:45:20;;;;;;;3.97;1.25;;;16.20;99.90;;;;;;5094074;28;20048;-27
2023/10/17 09:47:51;;;;;;;3.30;0.80;;;16.50;99.90;;;;;;5094266;28;20048;-28
2023/10/17 09:50:18;;;;;;;3.50;0.80;;;16.80;99.90;;;;;;5095729;28;20040;-28
2023/10/17 09:52:48;;;;;;;4.43;1.00;;;16.80;99.90;;;;;;5095083;28;20059;-28
2023/10/17 09:55:17;;;;;;;2.67;0.73;;;17.00;1.00;;;;;;5093922;28;20507;-27
2023/10/17 09:57:50;;;;;;;3.35;1.00;;;17.10;1.00;;;;;;5095286;28;20508;-29
2023/10/17 10:00:39;;;;;;;3.55;1.60;;;17.40;1.00;;;;;;5091983;28;20095;-28
2023/10/17 10:03:06;;;;;;;3.92;1.40;;;17.50;99.90;;;;;;5076688;28;20117;-29
2023/10/17 10:05:32;;;;;;;3.85;1.27;;;17.50;99.90;;;;;;5093729;28;20105;-28
2023/10/17 10:08:34;;;;;;;5.07;1.10;;;17.30;99.90;;;;;;5077769;28;20550;-28
2023/10/17 10:11:05;;;;;;;7.13;1.27;;;17.10;1.00;;;;;;5073512;28;20110;-28
2023/10/17 10:14:04;;;;;;;3.17;1.20;;;17.10;99.90;;;;;;5075388;28;20052;-28
2023/10/17 10:16:51;;;;;;;5.90;1.02;;;16.90;1.00;;;;;;5075280;28;20048;-28
2023/10/17 10:19:17;;;;;;;6.68;1.02;;;16.60;1.00;;;;;;5072998;28;20048;-30
2023/10/17 10:21:59;;;;;;;3.63;0.70;;;16.50;99.90;;;;;;5076102;28;20056;-28
2023/10/17 10:24:31;;;;;;;4.38;0.88;;;16.50;1.00;;;;;;5094516;28;20074;-28
2023/10/17 10:27:27;;;;;;;5.30;0.80;;;16.80;1.00;;;;;;5094476;28;20051;-27
2023/10/17 10:30:32;;;;;;;2.60;0.75;;;16.70;1.00;;;;;;5094459;28;20051;-28
2023/10/17 10:32:59;;;;;;;2.70;0.88;;;16.70;99.90;;;;;;5083855;28;20073;-28
2023/10/17 10:35:25;;;;;;;7.00;0.80;;;16.80;1.00;;;;;;5094906;28;20121;-28
2023/10/17 10:37:54;;;;;;;4.85;0.98;;;17.00;1.00;;;;;;5087781;28;20048;-27
2023/10/17 10:40:26;;;;;;;2.72;0.63;;;16.90;1.00;;;;;;5081586;28;20119;-27
2023/10/17 10:42:58;;;;;;;5.85;2.25;;;17.20;1.00;;;;;;5073589;28;20040;-27
2023/10/17 10:45:24;;;;;;;7.78;5.47;;;17.40;1.00;;;;;;5072720;28;20052;-27
2023/10/17 10:47:57;;;;;;;2.67;1.05;;;17.60;1.00;;;;;;5085056;28;20056;-27
2023/10/17 10:50:27;;;;;;;4.63;0.73;;;17.50;1.00;;;;;;5082756;28;20047;-27
2023/10/17 10:52:54;;;;;;;2.25;0.57;;;17.20;99.90;;;;;;5080962;28;20048;-27
2023/10/17 10:55:20;;;;;;;4.47;0.57;;;17.10;1.00;;;;;;5073826;28;20044;-27
2023/10/17 10:57:50;;;;;;;4.57;0.60;;;17.30;1.00;;;;;;5072587;28;20447;-27
2023/10/17 11:00:17;;;;;;;4.35;0.95;;;17.10;99.90;;;;;;5072467;28;20061;-27
2023/10/17 11:02:43;;;;;;;3.40;0.73;;;17.30;1.00;;;;;;5079159;28;20055;-26
2023/10/17 11:05:13;;;;;;;2.17;0.57;;;17.40;99.90;;;;;;5093002;28;20051;-27
2023/10/17 11:07:39;;;;;;;2.72;0.70;;;17.50;1.00;;;;;;5093933;28;20044;-27
2023/10/17 11:10:06;;;;;;;2.72;0.60;;;17.60;99.90;;;;;;5094371;28;20089;-26
2023/10/17 11:12:33;;;;;;;2.35;0.52;;;17.80;99.90;;;;;;5092197;28;20150;-27
2023/10/17 11:15:15;;;;;;;8.55;1.33;;;18.00;99.90;;;;;;5091524;28;20048;-27
2023/10/17 11:17:42;;;;;;;2.70;1.23;;;18.10;99.90;;;;;;5092544;28;20611;-27
2023/10/17 11:20:27;;;;;;;2.40;0.88;;;18.00;99.90;;;;;;5092515;28;20474;-27
2023/10/17 11:22:54;;;;;;;1.50;0.60;;;17.90;99.90;;;;;;5093816;28;20393;-26
2023/10/17 11:25:26;;;;;;;5.53;1.10;;;17.60;99.90;;;;;;5085492;28;20051;-27
2023/10/17 11:27:54;;;;;;;4.47;1.20;;;17.70;99.90;;;;;;5093835;28;20478;-26
2023/10/17 11:30:20;;;;;;;3.95;0.90;;;17.60;99.90;;;;;;5093931;28;20098;-27
2023/10/17 11:32:49;;;;;;;2.30;0.98;;;17.80;99.90;;;;;;5093618;28;20047;-26
2023/10/17 11:35:19;;;;;;;4.03;0.75;;;17.90;99.90;;;;;;5092979;28;20056;-26
2023/10/17 11:37:47;;;;;;;6.47;1.08;;;17.90;99.90;;;;;;5095951;28;20075;-26
2023/10/17 11:40:43;;;;;;;1.52;0.47;;;17.80;99.90;;;;;;5097667;28;20118;-26
2023/10/17 11:43:18;;;;;;;4.75;1.60;;;18.10;99.90;;;;;;5096724;28;20087;-26
2023/10/17 11:45:45;;;;;;;2.42;0.93;;;18.00;99.90;;;;;;5096929;28;20118;-26
2023/10/17 11:48:32;;;;;;;4.13;1.00;;;18.10;99.90;;;;;;5087804;28;20051;-26
2023/10/17 11:51:18;;;;;;;4.47;0.80;;;18.30;99.90;;;;;;5080414;28;20075;-27
2023/10/17 11:54:08;;;;;;;4.72;1.00;;;18.40;99.90;;;;;;5077790;28;20364;-26
2023/10/17 11:56:39;;;;;;;14.75;1.27;;;18.50;99.90;;;;;;5077035;28;20055;-26
2023/10/17 11:59:18;;;;;;;15.88;1.52;;;18.50;99.90;;;;;;5075828;28;20597;-27
2023/10/17 12:01:53;;;;;;;27.48;3.00;;;18.50;99.90;;;;;;5081892;28;20048;-26
2023/10/17 12:04:19;;;;;;;9.20;1.45;;;18.20;99.90;;;;;;5088361;28;20048;-26
2023/10/17 12:06:48;;;;;;;5.82;1.30;;;18.00;99.90;;;;;;5076979;28;20556;-25
2023/10/17 12:09:23;;;;;;;8.18;1.10;;;18.10;99.90;;;;;;5077662;28;20107;-26
2023/10/17 12:11:51;;;;;;;3.28;0.90;;;18.30;99.90;;;;;;5077407;28;20052;-25
2023/10/17 12:14:21;;;;;;;4.80;2.38;;;18.10;99.90;;;;;;5080875;28;20044;-25
2023/10/17 12:16:54;;;;;;;2.63;0.70;;;18.10;99.90;;;;;;5081991;28;20048;-25
2023/10/17 12:19:26;;;;;;;4.38;1.13;;;18.30;99.90;;;;;;5075632;28;20429;-26
2023/10/17 12:21:53;;;;;;;4.80;0.70;;;18.30;99.90;;;;;;5075730;28;20490;-26
2023/10/17 12:24:24;;;;;;;3.90;1.20;;;18.50;99.90;;;;;;5075344;28;20045;-26
2023/10/17 12:26:50;;;;;;;3.47;0.73;;;18.60;99.90;;;;;;5078252;28;20045;-25
2023/10/17 12:29:17;;;;;;;1.92;0.70;;;18.50;99.90;;;;;;5076468;28;20087;-25
2023/10/17 12:31:43;;;;;;;2.83;0.90;;;18.50;99.90;;;;;;5076423;28;20106;-26
2023/10/17 12:34:09;;;;;;;2.08;0.90;;;18.50;99.90;;;;;;5076393;28;20041;-25
2023/10/17 12:36:38;;;;;;;4.32;1.52;;;18.40;99.90;;;;;;5076423;28;20052;-25
2023/10/17 12:39:10;;;;;;;4.10;1.20;;;18.20;99.90;;;;;;5096018;28;20044;-24
2023/10/17 12:41:36;;;;;;;4.05;0.68;;;18.20;99.90;;;;;;5096824;28;20047;-24
2023/10/17 12:44:02;;;;;;;3.65;0.82;;;18.10;99.90;;;;;;5083861;28;20037;-25
2023/10/17 12:46:27;;;;;;;2.50;0.80;;;18.10;99.90;;;;;;5077357;28;20048;-25
2023/10/17 12:48:53;;;;;;;2.75;0.75;;;18.10;99.90;;;;;;5075738;28;20040;-24
2023/10/17 12:51:23;;;;;;;3.10;0.70;;;18.30;99.90;;;;;;5076663;28;20505;-24
2023/10/17 12:53:49;;;;;;;6.50;1.95;;;18.40;99.90;;;;;;5059165;28;20467;-24
2023/10/17 12:56:17;;;;;;;4.57;0.85;;;18.60;99.90;;;;;;5085316;28;20482;-24
2023/10/17 12:58:44;;;;;;;2.70;0.80;;;18.50;99.90;;;;;;5081187;28;20513;-25
2023/10/17 13:01:12;;;;;;;4.85;1.02;;;18.60;99.90;;;;;;5089964;28;20482;-24
2023/10/17 13:03:38;;;;;;;2.45;0.77;;;18.60;99.90;;;;;;5094884;28;20040;-24
2023/10/17 13:06:08;;;;;;;3.72;0.70;;;18.20;99.90;;;;;;5095223;28;20048;-24
2023/10/17 13:08:35;;;;;;;4.03;0.88;;;18.40;99.90;;;;;;5078753;28;20483;-24
2023/10/17 13:11:02;;;;;;;3.97;0.85;;;18.50;99.90;;;;;;5075904;28;20132;-24
2023/10/17 13:13:32;;;;;;;3.72;0.75;;;18.40;99.90;;;;;;5082498;28;20497;-23
2023/10/17 13:15:59;;;;;;;6.75;3.10;;;18.30;99.90;;;;;;5095859;28;20040;-23
2023/10/17 13:18:30;;;;;;;4.28;1.00;;;18.10;99.90;;;;;;5093982;28;20535;-24
2023/10/17 13:21:06;;;;;;;1.52;0.73;;;17.90;99.90;;;;;;5079165;28;20422;-24
2023/10/17 13:23:32;;;;;;;4.65;0.77;;;18.00;99.90;;;;;;5075866;28;20086;-23
2023/10/17 13:25:58;;;;;;;2.85;0.70;;;17.90;99.90;;;;;;5078965;28;20562;-24
2023/10/17 13:28:27;;;;;;;2.40;0.55;;;17.60;99.90;;;;;;5095647;28;20500;-23
2023/10/17 13:30:53;;;;;;;2.20;0.70;;;17.30;99.90;;;;;;5095571;28;20078;-23
2023/10/17 13:33:21;;;;;;;3.92;0.60;;;17.20;1.00;;;;;;5090079;28;20044;-23
2023/10/17 13:35:47;;;;;;;3.80;1.15;;;17.40;99.90;;;;;;5076249;28;20120;-23
2023/10/17 13:38:13;;;;;;;3.15;0.80;;;17.30;99.90;;;;;;5076239;28;20068;-23
2023/10/17 13:40:39;;;;;;;2.22;0.95;;;17.30;99.90;;;;;;5075038;28;20043;-23
2023/10/17 13:43:05;;;;;;;4.22;0.70;;;17.30;99.90;;;;;;5075010;28;20053;-23
2023/10/17 13:45:39;;;;;;;3.40;0.90;;;17.20;99.90;;;;;;5074902;28;20059;-23
2023/10/17 13:48:06;;;;;;;3.85;0.68;;;16.90;99.90;;;;;;5075063;28;20130;-23
2023/10/17 13:50:32;;;;;;;3.47;0.82;;;16.90;99.90;;;;;;5075414;28;20044;-23
2023/10/17 13:53:06;;;;;;;2.95;0.98;;;16.70;99.90;;;;;;5074867;28;20043;-23
2023/10/17 13:55:38;;;;;;;2.88;0.68;;;16.80;99.90;;;;;;5075175;28;20437;-23
2023/10/17 13:58:04;;;;;;;5.30;0.90;;;16.70;99.90;;;;;;5074403;28;20475;-23
2023/10/17 14:00:44;;;;;;;2.95;0.82;;;16.80;1.00;;;;;;5084272;28;20346;-23
2023/10/17 14:03:14;;;;;;;2.65;0.60;;;16.90;1.00;;;;;;5076992;28;20124;-22
2023/10/17 14:05:47;;;;;;;1.85;0.60;;;16.70;99.90;;;;;;5074716;28;20037;-22
2023/10/17 14:08:14;;;;;;;4.53;0.60;;;16.60;99.90;;;;;;5074443;28;20052;-22
2023/10/17 14:10:44;;;;;;;1.88;0.82;;;16.40;99.90;;;;;;5074580;28;20398;-22
2023/10/17 14:13:12;;;;;;;2.85;1.13;;;16.30;99.90;;;;;;5075017;28;20056;-22
2023/10/17 14:15:39;;;;;;;5.57;1.40;;;16.00;99.90;;;;;;5085611;28;20041;-22
2023/10/17 14:18:14;;;;;;;4.78;0.90;;;15.70;99.90;;;;;;5074017;28;20060;-22
2023/10/17 14:21:04;;;;;;;4.47;1.42;;;15.40;1.00;;;;;;5078327;28;20045;-22
2023/10/17 14:23:32;;;;;;;2.50;0.70;;;15.40;1.00;;;;;;5091627;28;20055;-21
2023/10/17 14:26:07;;;;;;;3.25;0.80;;;15.20;1.00;;;;;;5093263;28;20063;-22
2023/10/17 14:28:34;;;;;;;4.03;0.60;;;15.30;1.00;;;;;;5094552;28;20083;-22
2023/10/17 14:31:03;;;;;;;3.97;0.88;;;15.30;1.00;;;;;;5094486;28;20048;-22
2023/10/17 14:33:33;;;;;;;3.45;0.43;;;15.30;1.00;;;;;;5079550;28;20048;-21
2023/10/17 14:36:03;;;;;;;4.80;0.73;;;15.30;81.60;;;;;;5074125;28;20135;-22
2023/10/17 14:38:28;;;;;;;3.42;0.70;;;15.40;48.40;;;;;;5074825;28;20052;-22
2023/10/17 14:40:54;;;;;;;1.45;0.68;;;15.30;99.90;;;;;;5073071;28;20547;-22
2023/10/17 14:43:20;;;;;;;4.35;0.57;;;15.40;58.80;;;;;;5082432;28;20043;-21
2023/10/17 14:45:46;;;;;;;2.15;0.35;;;15.50;1.00;;;;;;5088333;28;20123;-21
2023/10/17 14:48:11;;;;;;;2.30;0.50;;;15.50;3.20;;;;;;5074505;28;20123;-22
2023/10/17 14:50:39;;;;;;;3.60;0.80;;;15.60;74.10;;;;;;5077405;28;20044;-21
2023/10/17 14:53:05;;;;;;;2.58;0.50;;;15.40;1.00;;;;;;5075256;28;20044;-21
2023/10/17 14:55:31;;;;;;;1.42;0.38;;;15.30;1.00;;;;;;5094092;28;20044;-21
2023/10/17 14:57:57;;;;;;;2.30;0.50;;;15.30;1.00;;;;;;5082018;28;20119;-21
2023/10/17 15:00:23;;;;;;;1.85;0.30;;;15.20;1.00;;;;;;5073599;28;20215;-21
2023/10/17 15:02:50;;;;;;;2.20;0.32;;;15.10;1.00;;;;;;5078274;28;20044;-21
2023/10/17 15:05:16;;;;;;;2.25;0.43;;;15.10;1.00;;;;;;5093907;28;20047;-21
2023/10/17 15:07:44;;;;;;;1.70;0.35;;;14.90;1.00;;;;;;5093879;28;20477;-21
2023/10/17 15:10:11;;;;;;;1.83;0.35;;;14.80;1.00;;;;;;5092764;28;20062;-21
2023/10/17 15:12:45;;;;;;;2.47;0.43;;;14.80;1.00;;;;;;5093826;28;20127;-21
2023/10/17 15:15:11;;;;;;;5.78;2.15;;;14.80;1.00;;;;;;5092047;28;20047;-21
2023/10/17 15:17:38;;;;;;;3.17;0.80;;;14.80;1.00;;;;;;5076829;28;20048;-21
2023/10/17 15:20:05;;;;;;;2.17;0.47;;;14.80;55.70;;;;;;5083452;28;20036;-21
2023/10/17 15:22:32;;;;;;;3.95;0.65;;;14.80;15.20;;;;;;5078539;28;20123;-21
2023/10/17 15:24:58;;;;;;;1.88;0.57;;;14.90;1.00;;;;;;5081765;28;20040;-21
2023/10/17 15:27:26;;;;;;;3.70;0.57;;;14.80;1.00;;;;;;5073536;28;20144;-21
2023/10/17 15:29:52;;;;;;;3.53;0.50;;;14.80;1.00;;;;;;5073464;28;20055;-21
2023/10/17 15:32:17;;;;;;;1.80;0.60;;;14.80;94.40;;;;;;5055850;28;20131;-21